UAL6143 KMAF-KIAH
Flight info
| Callsign | UAL6143 |
|---|---|
| Flight time | 1h 0m |
| Altitude | 35000 |
| Route | SJT DIESL GUSHR3 |
| Aircraft | B738/M-SDE2E3FGHIRWXY/LB1 |
Departure
| Time | 2026-04-23 06:12 |
|---|---|
| Airport | Midland International Air and Space Port (KMAF) |
Arrival
| Time | 2026-04-23 07:12 |
|---|---|
| Airport | George Bush Intercontinental Airport (KIAH) |
| Time | Latitude | Longitude | Altitude | Speed | Heading |
|---|---|---|---|---|---|
| 2026-04-23 05:53 | 31.93777 | -102.20720 | 2861 ft | 0 kts | 268° |
| 2026-04-23 06:02 | 31.93777 | -102.20716 | 2861 ft | 2 kts | 268° |
| 2026-04-23 06:02 | 31.93776 | -102.20697 | 2861 ft | 2 kts | 288° |
| 2026-04-23 06:03 | 31.93770 | -102.20680 | 2861 ft | 2 kts | 302° |
| 2026-04-23 06:03 | 31.93760 | -102.20666 | 2860 ft | 2 kts | 317° |
| 2026-04-23 06:03 | 31.93747 | -102.20654 | 2860 ft | 2 kts | 333° |
| 2026-04-23 06:03 | 31.93733 | -102.20647 | 2860 ft | 2 kts | 348° |
| 2026-04-23 06:04 | 31.93723 | -102.20646 | 2860 ft | 1 kts | 358° |
| 2026-04-23 06:04 | 31.93718 | -102.20646 | 2860 ft | 0 kts | 359° |
| 2026-04-23 06:05 | 31.93722 | -102.20646 | 2860 ft | 1 kts | 359° |
| 2026-04-23 06:05 | 31.93736 | -102.20646 | 2860 ft | 2 kts | 359° |
| 2026-04-23 06:06 | 31.93758 | -102.20646 | 2860 ft | 3 kts | 8° |
| 2026-04-23 06:06 | 31.93780 | -102.20637 | 2860 ft | 4 kts | 27° |
| 2026-04-23 06:06 | 31.93833 | -102.20589 | 2860 ft | 12 kts | 49° |
| 2026-04-23 06:06 | 31.93883 | -102.20509 | 2860 ft | 11 kts | 51° |
| 2026-04-23 06:07 | 31.93946 | -102.20455 | 2860 ft | 11 kts | 25° |
| 2026-04-23 06:07 | 31.94015 | -102.20418 | 2860 ft | 10 kts | 25° |
| 2026-04-23 06:07 | 31.94112 | -102.20376 | 2860 ft | 21 kts | 13° |
| 2026-04-23 06:07 | 31.94298 | -102.20386 | 2863 ft | 29 kts | 353° |
| 2026-04-23 06:08 | 31.94496 | -102.20407 | 2864 ft | 28 kts | 356° |
| 2026-04-23 06:08 | 31.94688 | -102.20425 | 2866 ft | 26 kts | 355° |
| 2026-04-23 06:08 | 31.94869 | -102.20445 | 2868 ft | 26 kts | 355° |
| 2026-04-23 06:08 | 31.95074 | -102.20466 | 2871 ft | 29 kts | 354° |
| 2026-04-23 06:09 | 31.95196 | -102.20500 | 2873 ft | 10 kts | 323° |
| 2026-04-23 06:09 | 31.95207 | -102.20579 | 2872 ft | 14 kts | 268° |
| 2026-04-23 06:09 | 31.95233 | -102.20682 | 2871 ft | 12 kts | 334° |
| 2026-04-23 06:09 | 31.95333 | -102.20688 | 2872 ft | 21 kts | 3° |
| 2026-04-23 06:10 | 31.95540 | -102.20708 | 2870 ft | 27 kts | 359° |
| 2026-04-23 06:10 | 31.95728 | -102.20726 | 2870 ft | 26 kts | 355° |
| 2026-04-23 06:10 | 31.95872 | -102.20741 | 2870 ft | 13 kts | 9° |
| 2026-04-23 06:10 | 31.95923 | -102.20665 | 2868 ft | 13 kts | 90° |
| 2026-04-23 06:11 | 31.95925 | -102.20576 | 2867 ft | 7 kts | 95° |
| 2026-04-23 06:11 | 31.95886 | -102.20545 | 2867 ft | 10 kts | 176° |
| 2026-04-23 06:11 | 31.95782 | -102.20540 | 2868 ft | 20 kts | 175° |
| 2026-04-23 06:11 | 31.95378 | -102.20499 | 2873 ft | 98 kts | 175° |
| 2026-04-23 06:12 | 31.94425 | -102.20400 | 2869 ft | 169 kts | 175° |
| 2026-04-23 06:12 | 31.93218 | -102.20252 | 3610 ft | 178 kts | 175° |
| 2026-04-23 06:12 | 31.90805 | -102.19799 | 5229 ft | 188 kts | 173° |
| 2026-04-23 06:13 | 31.89483 | -102.19492 | 5808 ft | 203 kts | 173° |
| 2026-04-23 06:13 | 31.88043 | -102.19129 | 6363 ft | 222 kts | 172° |
| 2026-04-23 06:13 | 31.86483 | -102.18724 | 6992 ft | 238 kts | 172° |
| 2026-04-23 06:13 | 31.84835 | -102.18278 | 7579 ft | 255 kts | 167° |
| 2026-04-23 06:14 | 31.83264 | -102.17187 | 8304 ft | 274 kts | 136° |
| 2026-04-23 06:14 | 31.82334 | -102.15204 | 9145 ft | 284 kts | 111° |
| 2026-04-23 06:14 | 31.81846 | -102.12968 | 9951 ft | 290 kts | 104° |
| 2026-04-23 06:14 | 31.81396 | -102.10645 | 10746 ft | 295 kts | 105° |
| 2026-04-23 06:15 | 31.80882 | -102.08320 | 11486 ft | 300 kts | 108° |
| 2026-04-23 06:15 | 31.80292 | -102.05939 | 12207 ft | 307 kts | 109° |
| 2026-04-23 06:15 | 31.79665 | -102.03529 | 12949 ft | 313 kts | 109° |
| 2026-04-23 06:15 | 31.79017 | -102.01068 | 13683 ft | 318 kts | 109° |
| 2026-04-23 06:16 | 31.78369 | -101.98601 | 14460 ft | 320 kts | 109° |
| 2026-04-23 06:16 | 31.77722 | -101.96126 | 15215 ft | 322 kts | 108° |
| 2026-04-23 06:16 | 31.77061 | -101.93593 | 15876 ft | 327 kts | 108° |
| 2026-04-23 06:16 | 31.76399 | -101.91049 | 16583 ft | 329 kts | 108° |
| 2026-04-23 06:17 | 31.75736 | -101.88500 | 17258 ft | 331 kts | 108° |
| 2026-04-23 06:17 | 31.75055 | -101.85895 | 17889 ft | 335 kts | 108° |
| 2026-04-23 06:17 | 31.74373 | -101.83287 | 18527 ft | 338 kts | 108° |
| 2026-04-23 06:17 | 31.73680 | -101.80630 | 19188 ft | 340 kts | 107° |
| 2026-04-23 06:18 | 31.72989 | -101.77985 | 19847 ft | 341 kts | 107° |
| 2026-04-23 06:18 | 31.72283 | -101.75291 | 20451 ft | 344 kts | 108° |
| 2026-04-23 06:18 | 31.71573 | -101.72589 | 21017 ft | 347 kts | 108° |
| 2026-04-23 06:18 | 31.70864 | -101.69891 | 21636 ft | 348 kts | 108° |
| 2026-04-23 06:19 | 31.70138 | -101.67134 | 22213 ft | 350 kts | 108° |
| 2026-04-23 06:19 | 31.69420 | -101.64404 | 22684 ft | 355 kts | 107° |
| 2026-04-23 06:19 | 31.68681 | -101.61597 | 23247 ft | 357 kts | 108° |
| 2026-04-23 06:19 | 31.67947 | -101.58810 | 23760 ft | 360 kts | 108° |
| 2026-04-23 06:20 | 31.67199 | -101.55977 | 24232 ft | 367 kts | 108° |
| 2026-04-23 06:20 | 31.66444 | -101.53110 | 24507 ft | 380 kts | 107° |
| 2026-04-23 06:20 | 31.65640 | -101.50069 | 24727 ft | 394 kts | 108° |
| 2026-04-23 06:20 | 31.64813 | -101.46941 | 25000 ft | 406 kts | 108° |
| 2026-04-23 06:21 | 31.63967 | -101.43747 | 25225 ft | 419 kts | 107° |
| 2026-04-23 06:21 | 31.63082 | -101.40408 | 25461 ft | 432 kts | 107° |
| 2026-04-23 06:21 | 31.62175 | -101.37006 | 25636 ft | 446 kts | 108° |
| 2026-04-23 06:21 | 31.61233 | -101.33481 | 25822 ft | 459 kts | 108° |
| 2026-04-23 06:22 | 31.60264 | -101.29849 | 25966 ft | 473 kts | 108° |
| 2026-04-23 06:22 | 31.59280 | -101.26157 | 26133 ft | 485 kts | 108° |
| 2026-04-23 06:22 | 31.58253 | -101.22304 | 26298 ft | 498 kts | 108° |
| 2026-04-23 06:22 | 31.57224 | -101.18443 | 26680 ft | 505 kts | 108° |
| 2026-04-23 06:23 | 31.56178 | -101.14523 | 27310 ft | 506 kts | 108° |
| 2026-04-23 06:23 | 31.55121 | -101.10568 | 27809 ft | 509 kts | 108° |
| 2026-04-23 06:23 | 31.54065 | -101.06627 | 28444 ft | 510 kts | 108° |
| 2026-04-23 06:23 | 31.53000 | -101.02663 | 29161 ft | 508 kts | 108° |
| 2026-04-23 06:24 | 31.51943 | -100.98730 | 29939 ft | 504 kts | 108° |
| 2026-04-23 06:24 | 31.50890 | -100.94822 | 30490 ft | 505 kts | 108° |
| 2026-04-23 06:24 | 31.49814 | -100.90833 | 30942 ft | 508 kts | 108° |
| 2026-04-23 06:24 | 31.48731 | -100.86826 | 31455 ft | 508 kts | 107° |
| 2026-04-23 06:25 | 31.47623 | -100.82731 | 32044 ft | 507 kts | 107° |
| 2026-04-23 06:25 | 31.46528 | -100.78693 | 32522 ft | 508 kts | 107° |
| 2026-04-23 06:25 | 31.45421 | -100.74616 | 33016 ft | 508 kts | 107° |
| 2026-04-23 06:25 | 31.44293 | -100.70464 | 33543 ft | 508 kts | 106° |
| 2026-04-23 06:26 | 31.43177 | -100.66358 | 34031 ft | 509 kts | 106° |
| 2026-04-23 06:26 | 31.42062 | -100.62266 | 34568 ft | 509 kts | 106° |
| 2026-04-23 06:26 | 31.40936 | -100.58137 | 34948 ft | 511 kts | 106° |
| 2026-04-23 06:26 | 31.39768 | -100.53858 | 34947 ft | 515 kts | 106° |
| 2026-04-23 06:27 | 31.37445 | -100.45373 | 34947 ft | 508 kts | 106° |
| 2026-04-23 06:27 | 31.35217 | -100.36823 | 34946 ft | 507 kts | 104° |
| 2026-04-23 06:28 | 31.33048 | -100.27934 | 34948 ft | 508 kts | 104° |
| 2026-04-23 06:28 | 31.30969 | -100.19385 | 34956 ft | 509 kts | 104° |
| 2026-04-23 06:29 | 31.28872 | -100.10910 | 34961 ft | 506 kts | 104° |
| 2026-04-23 06:29 | 31.26729 | -100.02348 | 34962 ft | 508 kts | 105° |
| 2026-04-23 06:30 | 31.24536 | -99.93664 | 34965 ft | 506 kts | 104° |
| 2026-04-23 06:30 | 31.22339 | -99.84941 | 34969 ft | 507 kts | 105° |
| 2026-04-23 06:31 | 31.20151 | -99.76258 | 34969 ft | 505 kts | 104° |
| 2026-04-23 06:31 | 31.17964 | -99.67651 | 34967 ft | 503 kts | 105° |
| 2026-04-23 06:32 | 31.15751 | -99.58979 | 34973 ft | 505 kts | 105° |
| 2026-04-23 06:32 | 31.13536 | -99.50314 | 34969 ft | 503 kts | 105° |
| 2026-04-23 06:33 | 31.11327 | -99.41690 | 34972 ft | 503 kts | 105° |
| 2026-04-23 06:33 | 31.09095 | -99.32993 | 34965 ft | 503 kts | 105° |
| 2026-04-23 06:34 | 31.06874 | -99.24363 | 34966 ft | 504 kts | 105° |
| 2026-04-23 06:34 | 31.04647 | -99.15771 | 34958 ft | 502 kts | 106° |
| 2026-04-23 06:35 | 31.02426 | -99.07223 | 34949 ft | 500 kts | 105° |
| 2026-04-23 06:35 | 31.00208 | -98.98682 | 34946 ft | 501 kts | 105° |
| 2026-04-23 06:36 | 30.97947 | -98.89998 | 34949 ft | 500 kts | 105° |
| 2026-04-23 06:36 | 30.96193 | -98.81266 | 34950 ft | 499 kts | 97° |
| 2026-04-23 06:37 | 30.95207 | -98.72464 | 34954 ft | 499 kts | 94° |
| 2026-04-23 06:37 | 30.94445 | -98.63980 | 34954 ft | 498 kts | 93° |
| 2026-04-23 06:38 | 30.93680 | -98.55451 | 34953 ft | 498 kts | 93° |
| 2026-04-23 06:38 | 30.92882 | -98.46925 | 34954 ft | 498 kts | 93° |
| 2026-04-23 06:39 | 30.92053 | -98.38255 | 34956 ft | 499 kts | 93° |
| 2026-04-23 06:39 | 30.91219 | -98.29630 | 34965 ft | 497 kts | 94° |
| 2026-04-23 06:40 | 30.90341 | -98.20686 | 34965 ft | 499 kts | 94° |
| 2026-04-23 06:40 | 30.89448 | -98.11704 | 34961 ft | 498 kts | 94° |
| 2026-04-23 06:41 | 30.88558 | -98.02820 | 34963 ft | 499 kts | 94° |
| 2026-04-23 06:41 | 30.87662 | -97.93851 | 34968 ft | 499 kts | 94° |
| 2026-04-23 06:42 | 30.86758 | -97.84928 | 34967 ft | 498 kts | 94° |
| 2026-04-23 06:42 | 30.85860 | -97.76119 | 34975 ft | 499 kts | 93° |
| 2026-04-23 06:43 | 30.85000 | -97.67693 | 34968 ft | 499 kts | 93° |
| 2026-04-23 06:43 | 30.84070 | -97.58697 | 34963 ft | 499 kts | 93° |
| 2026-04-23 06:44 | 30.83186 | -97.50219 | 34956 ft | 498 kts | 93° |
| 2026-04-23 06:44 | 30.82268 | -97.41449 | 34953 ft | 498 kts | 94° |
| 2026-04-23 06:45 | 30.81349 | -97.32731 | 34949 ft | 499 kts | 94° |
| 2026-04-23 06:45 | 30.80446 | -97.24259 | 34936 ft | 492 kts | 94° |
| 2026-04-23 06:46 | 30.79995 | -97.20082 | 34637 ft | 483 kts | 94° |
| 2026-04-23 06:46 | 30.79555 | -97.15992 | 33644 ft | 489 kts | 94° |
| 2026-04-23 06:46 | 30.79101 | -97.11723 | 32453 ft | 498 kts | 94° |
| 2026-04-23 06:46 | 30.78649 | -97.07491 | 31782 ft | 494 kts | 94° |
| 2026-04-23 06:47 | 30.78203 | -97.03355 | 30928 ft | 495 kts | 94° |
| 2026-04-23 06:47 | 30.77747 | -96.99154 | 30481 ft | 480 kts | 94° |
| 2026-04-23 06:47 | 30.77298 | -96.95029 | 29707 ft | 470 kts | 94° |
| 2026-04-23 06:47 | 30.76879 | -96.91183 | 28903 ft | 462 kts | 95° |
| 2026-04-23 06:48 | 30.76467 | -96.87403 | 28087 ft | 455 kts | 95° |
| 2026-04-23 06:48 | 30.76067 | -96.83748 | 27209 ft | 450 kts | 95° |
| 2026-04-23 06:48 | 30.75673 | -96.80136 | 26605 ft | 443 kts | 95° |
| 2026-04-23 06:48 | 30.75288 | -96.76629 | 26112 ft | 438 kts | 94° |
| 2026-04-23 06:49 | 30.74905 | -96.73144 | 25282 ft | 434 kts | 94° |
| 2026-04-23 06:49 | 30.74525 | -96.69682 | 24829 ft | 428 kts | 94° |
| 2026-04-23 06:49 | 30.74147 | -96.66277 | 24261 ft | 424 kts | 95° |
| 2026-04-23 06:49 | 30.73775 | -96.62922 | 23475 ft | 419 kts | 94° |
| 2026-04-23 06:50 | 30.73404 | -96.59596 | 23058 ft | 404 kts | 94° |
| 2026-04-23 06:50 | 30.73047 | -96.56388 | 22503 ft | 401 kts | 94° |
| 2026-04-23 06:50 | 30.72689 | -96.53153 | 21709 ft | 406 kts | 94° |
| 2026-04-23 06:50 | 30.72331 | -96.49940 | 21335 ft | 399 kts | 95° |
| 2026-04-23 06:51 | 30.71973 | -96.46747 | 20856 ft | 395 kts | 94° |
| 2026-04-23 06:51 | 30.71616 | -96.43574 | 20185 ft | 397 kts | 95° |
| 2026-04-23 06:51 | 30.71256 | -96.40363 | 19606 ft | 395 kts | 95° |
| 2026-04-23 06:51 | 30.70882 | -96.37220 | 19153 ft | 391 kts | 97° |
| 2026-04-23 06:52 | 30.70354 | -96.34114 | 18624 ft | 389 kts | 103° |
| 2026-04-23 06:52 | 30.69471 | -96.31107 | 18092 ft | 387 kts | 112° |
| 2026-04-23 06:52 | 30.68349 | -96.28310 | 17396 ft | 383 kts | 116° |
| 2026-04-23 06:52 | 30.67110 | -96.25616 | 16828 ft | 380 kts | 118° |
| 2026-04-23 06:53 | 30.65828 | -96.22949 | 16419 ft | 374 kts | 118° |
| 2026-04-23 06:53 | 30.64551 | -96.20301 | 15750 ft | 373 kts | 118° |
| 2026-04-23 06:53 | 30.63309 | -96.17690 | 15170 ft | 369 kts | 117° |
| 2026-04-23 06:53 | 30.62102 | -96.15118 | 14781 ft | 364 kts | 117° |
| 2026-04-23 06:54 | 30.60891 | -96.12508 | 14196 ft | 365 kts | 117° |
| 2026-04-23 06:54 | 30.59710 | -96.09946 | 13587 ft | 360 kts | 117° |
| 2026-04-23 06:54 | 30.58533 | -96.07386 | 13048 ft | 354 kts | 117° |
| 2026-04-23 06:54 | 30.57385 | -96.04888 | 12645 ft | 349 kts | 117° |
| 2026-04-23 06:55 | 30.56253 | -96.02428 | 11912 ft | 351 kts | 117° |
| 2026-04-23 06:55 | 30.55102 | -95.99930 | 11441 ft | 346 kts | 116° |
| 2026-04-23 06:55 | 30.53977 | -95.97488 | 11066 ft | 340 kts | 117° |
| 2026-04-23 06:55 | 30.52877 | -95.95103 | 10683 ft | 336 kts | 117° |
| 2026-04-23 06:56 | 30.51782 | -95.92731 | 10474 ft | 325 kts | 117° |
| 2026-04-23 06:56 | 30.50738 | -95.90494 | 10372 ft | 312 kts | 118° |
| 2026-04-23 06:56 | 30.49528 | -95.88441 | 10226 ft | 302 kts | 131° |
| 2026-04-23 06:56 | 30.47883 | -95.87017 | 9894 ft | 294 kts | 159° |
| 2026-04-23 06:57 | 30.45949 | -95.86483 | 9687 ft | 288 kts | 178° |
| 2026-04-23 06:57 | 30.43949 | -95.86700 | 9458 ft | 290 kts | 193° |
| 2026-04-23 06:57 | 30.41963 | -95.87280 | 9201 ft | 288 kts | 197° |
| 2026-04-23 06:57 | 30.40050 | -95.87892 | 8953 ft | 284 kts | 197° |
| 2026-04-23 06:58 | 30.38133 | -95.88481 | 8703 ft | 280 kts | 195° |
| 2026-04-23 06:58 | 30.36241 | -95.89035 | 8459 ft | 279 kts | 195° |
| 2026-04-23 06:58 | 30.34378 | -95.89565 | 8219 ft | 278 kts | 194° |
| 2026-04-23 06:58 | 30.32476 | -95.90099 | 7987 ft | 276 kts | 195° |
| 2026-04-23 06:59 | 30.30617 | -95.90620 | 7958 ft | 272 kts | 194° |
| 2026-04-23 06:59 | 30.28777 | -95.91137 | 7952 ft | 276 kts | 194° |
| 2026-04-23 06:59 | 30.26884 | -95.91670 | 7944 ft | 277 kts | 195° |
| 2026-04-23 06:59 | 30.25008 | -95.92196 | 7939 ft | 277 kts | 195° |
| 2026-04-23 07:00 | 30.23143 | -95.92719 | 7944 ft | 276 kts | 194° |
| 2026-04-23 07:00 | 30.21271 | -95.93244 | 7943 ft | 276 kts | 195° |
| 2026-04-23 07:00 | 30.19408 | -95.93766 | 7943 ft | 276 kts | 195° |
| 2026-04-23 07:00 | 30.17555 | -95.94285 | 7940 ft | 270 kts | 195° |
| 2026-04-23 07:01 | 30.15731 | -95.94795 | 7939 ft | 261 kts | 194° |
| 2026-04-23 07:01 | 30.13927 | -95.95175 | 7937 ft | 252 kts | 185° |
| 2026-04-23 07:01 | 30.12205 | -95.94961 | 7936 ft | 245 kts | 164° |
| 2026-04-23 07:01 | 30.10571 | -95.94290 | 7948 ft | 245 kts | 160° |
| 2026-04-23 07:02 | 30.08890 | -95.93561 | 7954 ft | 247 kts | 161° |
| 2026-04-23 07:02 | 30.07258 | -95.92916 | 7949 ft | 243 kts | 162° |
| 2026-04-23 07:02 | 30.05599 | -95.92299 | 7965 ft | 237 kts | 163° |
| 2026-04-23 07:02 | 30.03980 | -95.91708 | 7946 ft | 238 kts | 163° |
| 2026-04-23 07:03 | 30.02416 | -95.90953 | 7937 ft | 241 kts | 149° |
| 2026-04-23 07:03 | 30.01182 | -95.89591 | 7945 ft | 243 kts | 126° |
| 2026-04-23 07:03 | 30.00199 | -95.87877 | 7944 ft | 242 kts | 122° |
| 2026-04-23 07:03 | 29.99411 | -95.86121 | 7941 ft | 240 kts | 109° |
| 2026-04-23 07:04 | 29.99100 | -95.84220 | 7938 ft | 240 kts | 91° |
| 2026-04-23 07:04 | 29.99128 | -95.82278 | 7801 ft | 244 kts | 87° |
| 2026-04-23 07:04 | 29.99199 | -95.80341 | 7632 ft | 240 kts | 88° |
| 2026-04-23 07:04 | 29.99238 | -95.78450 | 7589 ft | 235 kts | 89° |
| 2026-04-23 07:05 | 29.99254 | -95.76516 | 7334 ft | 243 kts | 90° |
| 2026-04-23 07:05 | 29.99262 | -95.74568 | 6903 ft | 247 kts | 90° |
| 2026-04-23 07:05 | 29.99268 | -95.72594 | 6524 ft | 246 kts | 91° |
| 2026-04-23 07:05 | 29.99275 | -95.70583 | 6157 ft | 245 kts | 91° |
| 2026-04-23 07:06 | 29.99281 | -95.68644 | 5806 ft | 243 kts | 91° |
| 2026-04-23 07:06 | 29.99288 | -95.66701 | 5423 ft | 238 kts | 92° |
| 2026-04-23 07:06 | 29.99294 | -95.64840 | 5100 ft | 230 kts | 92° |
| 2026-04-23 07:06 | 29.99294 | -95.63001 | 4788 ft | 223 kts | 94° |
| 2026-04-23 07:07 | 29.99300 | -95.61244 | 4482 ft | 223 kts | 92° |
| 2026-04-23 07:07 | 29.99314 | -95.59447 | 4155 ft | 223 kts | 92° |
| 2026-04-23 07:07 | 29.99318 | -95.57658 | 3847 ft | 221 kts | 94° |
| 2026-04-23 07:07 | 29.99313 | -95.55887 | 3539 ft | 221 kts | 94° |
| 2026-04-23 07:08 | 29.99318 | -95.54127 | 3216 ft | 218 kts | 94° |
| 2026-04-23 07:08 | 29.99323 | -95.52419 | 2949 ft | 210 kts | 94° |
| 2026-04-23 07:08 | 29.99327 | -95.50771 | 2672 ft | 204 kts | 95° |
| 2026-04-23 07:08 | 29.99329 | -95.49155 | 2396 ft | 195 kts | 95° |
| 2026-04-23 07:09 | 29.99334 | -95.47657 | 2155 ft | 177 kts | 96° |
| 2026-04-23 07:09 | 29.99336 | -95.46288 | 1906 ft | 165 kts | 96° |
| 2026-04-23 07:09 | 29.99339 | -95.45026 | 1726 ft | 150 kts | 97° |
| 2026-04-23 07:09 | 29.99340 | -95.43865 | 1508 ft | 146 kts | 96° |
| 2026-04-23 07:10 | 29.99334 | -95.42706 | 1307 ft | 143 kts | 96° |
| 2026-04-23 07:10 | 29.99339 | -95.41568 | 1160 ft | 145 kts | 94° |
| 2026-04-23 07:10 | 29.99344 | -95.40401 | 930 ft | 149 kts | 94° |
| 2026-04-23 07:10 | 29.99338 | -95.39237 | 761 ft | 145 kts | 95° |
| 2026-04-23 07:11 | 29.99332 | -95.38059 | 547 ft | 147 kts | 93° |
| 2026-04-23 07:11 | 29.99334 | -95.36914 | 362 ft | 147 kts | 92° |
| 2026-04-23 07:11 | 29.99341 | -95.35729 | 187 ft | 147 kts | 91° |
| 2026-04-23 07:12 | 29.99341 | -95.33951 | 101 ft | 56 kts | 90° |
| 2026-04-23 07:12 | 29.99340 | -95.33577 | 101 ft | 41 kts | 91° |
| 2026-04-23 07:12 | 29.99322 | -95.33349 | 101 ft | 26 kts | 107° |
| 2026-04-23 07:12 | 29.99255 | -95.33177 | 99 ft | 14 kts | 118° |
| 2026-04-23 07:13 | 29.99250 | -95.33165 | 99 ft | 0 kts | 118° |
| 2026-04-23 07:13 | 29.99249 | -95.33163 | 99 ft | 1 kts | 118° |
| 2026-04-23 07:13 | 29.99216 | -95.33096 | 99 ft | 18 kts | 122° |
| 2026-04-23 07:13 | 29.99150 | -95.33031 | 98 ft | 12 kts | 169° |
| 2026-04-23 07:14 | 29.99067 | -95.33029 | 98 ft | 11 kts | 180° |
| 2026-04-23 07:14 | 29.98990 | -95.33028 | 98 ft | 11 kts | 179° |
| 2026-04-23 07:14 | 29.98935 | -95.33057 | 98 ft | 9 kts | 247° |
| 2026-04-23 07:14 | 29.98916 | -95.33123 | 98 ft | 8 kts | 240° |
| 2026-04-23 07:15 | 29.98876 | -95.33154 | 98 ft | 6 kts | 219° |
| 2026-04-23 07:15 | 29.98845 | -95.33182 | 98 ft | 4 kts | 204° |
| 2026-04-23 07:15 | 29.98821 | -95.33186 | 98 ft | 0 kts | 179° |
| 2026-04-23 07:15 | 29.98821 | -95.33185 | 98 ft | 0 kts | 179° |